sensor_id;sensor_type;location;lat;lon;timestamp;pressure;altitude;pressure_sealevel;temperature;humidity
71772;BME280;59606;52.138;5.424;2024-03-22T00:01:42;102132.28;;;10.62;100.00
71772;BME280;59606;52.138;5.424;2024-03-22T00:04:08;102133.13;;;10.62;100.00
71772;BME280;59606;52.138;5.424;2024-03-22T00:06:34;102129.63;;;10.64;100.00
71772;BME280;59606;52.138;5.424;2024-03-22T00:08:59;102125.19;;;10.66;100.00
71772;BME280;59606;52.138;5.424;2024-03-22T00:11:25;102124.31;;;10.67;100.00
71772;BME280;59606;52.138;5.424;2024-03-22T00:13:50;102110.47;;;10.65;100.00
71772;BME280;59606;52.138;5.424;2024-03-22T00:16:16;102111.28;;;10.67;100.00
71772;BME280;59606;52.138;5.424;2024-03-22T00:18:42;102099.09;;;10.67;100.00
71772;BME280;59606;52.138;5.424;2024-03-22T00:21:07;102093.91;;;10.66;100.00
71772;BME280;59606;52.138;5.424;2024-03-22T00:23:33;102087.00;;;10.65;100.00
71772;BME280;59606;52.138;5.424;2024-03-22T00:25:59;102086.09;;;10.66;100.00
71772;BME280;59606;52.138;5.424;2024-03-22T00:28:25;102083.50;;;10.66;100.00
71772;BME280;59606;52.138;5.424;2024-03-22T00:30:50;102078.34;;;10.64;100.00
71772;BME280;59606;52.138;5.424;2024-03-22T00:33:16;102074.91;;;10.64;100.00
71772;BME280;59606;52.138;5.424;2024-03-22T00:35:41;102068.84;;;10.63;100.00
71772;BME280;59606;52.138;5.424;2024-03-22T00:38:07;102061.91;;;10.62;100.00
71772;BME280;59606;52.138;5.424;2024-03-22T00:40:33;102068.88;;;10.61;100.00
71772;BME280;59606;52.138;5.424;2024-03-22T00:42:58;102059.38;;;10.60;100.00
71772;BME280;59606;52.138;5.424;2024-03-22T00:45:24;102048.13;;;10.58;100.00
71772;BME280;59606;52.138;5.424;2024-03-22T00:47:49;102037.81;;;10.55;100.00
71772;BME280;59606;52.138;5.424;2024-03-22T00:50:15;102032.59;;;10.55;100.00
71772;BME280;59606;52.138;5.424;2024-03-22T00:52:41;102033.53;;;10.54;100.00
71772;BME280;59606;52.138;5.424;2024-03-22T00:55:07;102029.16;;;10.55;100.00
71772;BME280;59606;52.138;5.424;2024-03-22T00:57:33;102033.53;;;10.54;100.00
71772;BME280;59606;52.138;5.424;2024-03-22T00:59:58;102027.41;;;10.55;100.00
71772;BME280;59606;52.138;5.424;2024-03-22T01:02:24;102023.94;;;10.55;100.00
71772;BME280;59606;52.138;5.424;2024-03-22T01:04:49;102023.94;;;10.55;100.00
71772;BME280;59606;52.138;5.424;2024-03-22T01:07:15;102031.84;;;10.53;100.00
71772;BME280;59606;52.138;5.424;2024-03-22T01:09:41;102030.91;;;10.54;100.00
71772;BME280;59606;52.138;5.424;2024-03-22T01:12:09;102020.50;;;10.54;100.00
71772;BME280;59606;52.138;5.424;2024-03-22T01:14:35;102023.09;;;10.54;100.00
71772;BME280;59606;52.138;5.424;2024-03-22T01:17:02;102017.88;;;10.54;100.00
71772;BME280;59606;52.138;5.424;2024-03-22T01:19:27;102015.28;;;10.54;100.00
71772;BME280;59606;52.138;5.424;2024-03-22T01:21:53;102018.72;;;10.55;100.00
71772;BME280;59606;52.138;5.424;2024-03-22T01:24:18;102019.59;;;10.55;100.00
71772;BME280;59606;52.138;5.424;2024-03-22T01:26:44;102016.13;;;10.55;100.00
71772;BME280;59606;52.138;5.424;2024-03-22T01:29:09;102013.47;;;10.56;100.00
71772;BME280;59606;52.138;5.424;2024-03-22T01:31:35;102010.81;;;10.58;100.00
71772;BME280;59606;52.138;5.424;2024-03-22T01:34:00;102012.56;;;10.57;100.00
71772;BME280;59606;52.138;5.424;2024-03-22T01:36:26;102009.97;;;10.57;100.00
71772;BME280;59606;52.138;5.424;2024-03-22T01:38:52;102012.56;;;10.57;100.00
71772;BME280;59606;52.138;5.424;2024-03-22T01:41:17;102002.06;;;10.59;100.00
71772;BME280;59606;52.138;5.424;2024-03-22T01:43:43;101994.22;;;10.60;100.00
71772;BME280;59606;52.138;5.424;2024-03-22T01:46:09;101995.06;;;10.61;100.00
71772;BME280;59606;52.138;5.424;2024-03-22T01:48:34;102000.28;;;10.61;100.00
71772;BME280;59606;52.138;5.424;2024-03-22T01:51:01;101980.25;;;10.63;100.00
71772;BME280;59606;52.138;5.424;2024-03-22T01:53:27;101982.84;;;10.63;100.00
71772;BME280;59606;52.138;5.424;2024-03-22T01:55:52;101987.19;;;10.62;100.00
71772;BME280;59606;52.138;5.424;2024-03-22T01:58:18;101984.56;;;10.62;100.00
71772;BME280;59606;52.138;5.424;2024-03-22T02:00:44;101992.38;;;10.62;100.00
71772;BME280;59606;52.138;5.424;2024-03-22T02:03:09;101989.84;;;10.61;100.00
71772;BME280;59606;52.138;5.424;2024-03-22T02:05:35;101992.38;;;10.62;100.00
71772;BME280;59606;52.138;5.424;2024-03-22T02:08:00;101985.44;;;10.63;100.00
71772;BME280;59606;52.138;5.424;2024-03-22T02:10:26;101987.97;;;10.65;100.00
71772;BME280;59606;52.138;5.424;2024-03-22T02:12:52;101988.91;;;10.64;100.00
71772;BME280;59606;52.138;5.424;2024-03-22T02:15:17;101980.16;;;10.65;100.00
71772;BME280;59606;52.138;5.424;2024-03-22T02:17:43;101975.81;;;10.65;100.00
71772;BME280;59606;52.138;5.424;2024-03-22T02:20:09;101977.50;;;10.66;100.00
71772;BME280;59606;52.138;5.424;2024-03-22T02:22:35;101971.44;;;10.66;100.00
71772;BME280;59606;52.138;5.424;2024-03-22T02:25:01;101975.75;;;10.67;100.00
71772;BME280;59606;52.138;5.424;2024-03-22T02:27:26;101974.00;;;10.67;100.00
71772;BME280;59606;52.138;5.424;2024-03-22T02:29:52;101968.72;;;10.69;100.00
71772;BME280;59606;52.138;5.424;2024-03-22T02:32:17;101966.94;;;10.69;100.00
71772;BME280;59606;52.138;5.424;2024-03-22T02:34:43;101954.81;;;10.70;100.00
71772;BME280;59606;52.138;5.424;2024-03-22T02:37:09;101958.28;;;10.69;100.00
71772;BME280;59606;52.138;5.424;2024-03-22T02:39:34;101959.13;;;10.69;100.00
71772;BME280;59606;52.138;5.424;2024-03-22T02:42:01;101965.22;;;10.70;100.00
71772;BME280;59606;52.138;5.424;2024-03-22T02:44:26;101958.28;;;10.69;100.00
71772;BME280;59606;52.138;5.424;2024-03-22T02:46:52;101955.69;;;10.69;100.00
71772;BME280;59606;52.138;5.424;2024-03-22T02:49:18;101951.38;;;10.68;100.00
71772;BME280;59606;52.138;5.424;2024-03-22T02:51:44;101932.31;;;10.67;100.00
71772;BME280;59606;52.138;5.424;2024-03-22T02:54:09;101931.47;;;10.67;100.00
71772;BME280;59606;52.138;5.424;2024-03-22T02:56:35;101934.94;;;10.66;100.00
71772;BME280;59606;52.138;5.424;2024-03-22T02:59:00;101925.38;;;10.66;100.00
71772;BME280;59606;52.138;5.424;2024-03-22T03:01:26;101921.91;;;10.66;100.00
71772;BME280;59606;52.138;5.424;2024-03-22T03:03:51;101908.97;;;10.64;100.00
71772;BME280;59606;52.138;5.424;2024-03-22T03:06:17;101898.56;;;10.62;100.00
71772;BME280;59606;52.138;5.424;2024-03-22T03:08:45;101889.16;;;10.60;100.00
71772;BME280;59606;52.138;5.424;2024-03-22T03:11:13;101886.53;;;10.60;100.00
71772;BME280;59606;52.138;5.424;2024-03-22T03:13:38;101881.38;;;10.58;100.00
71772;BME280;59606;52.138;5.424;2024-03-22T03:16:04;101883.97;;;10.58;100.00
71772;BME280;59606;52.138;5.424;2024-03-22T03:18:29;101877.91;;;10.58;100.00
71772;BME280;59606;52.138;5.424;2024-03-22T03:20:55;101875.31;;;10.58;100.00
71772;BME280;59606;52.138;5.424;2024-03-22T03:23:21;101879.72;;;10.56;100.00
71772;BME280;59606;52.138;5.424;2024-03-22T03:25:46;101872.88;;;10.53;100.00
71772;BME280;59606;52.138;5.424;2024-03-22T03:28:12;101877.22;;;10.53;100.00
71772;BME280;59606;52.138;5.424;2024-03-22T03:30:38;101872.09;;;10.51;100.00
71772;BME280;59606;52.138;5.424;2024-03-22T03:33:04;101873.03;;;10.49;100.00
71772;BME280;59606;52.138;5.424;2024-03-22T03:35:30;101867.94;;;10.46;100.00
71772;BME280;59606;52.138;5.424;2024-03-22T03:37:55;101859.47;;;10.41;100.00
71772;BME280;59606;52.138;5.424;2024-03-22T03:40:21;101854.25;;;10.41;100.00
71772;BME280;59606;52.138;5.424;2024-03-22T03:42:50;101847.38;;;10.40;100.00
71772;BME280;59606;52.138;5.424;2024-03-22T03:45:16;101840.44;;;10.38;100.00
71772;BME280;59606;52.138;5.424;2024-03-22T03:47:42;101843.13;;;10.37;100.00
71772;BME280;59606;52.138;5.424;2024-03-22T03:50:07;101851.03;;;10.34;100.00
71772;BME280;59606;52.138;5.424;2024-03-22T03:52:33;101835.53;;;10.31;100.00
71772;BME280;59606;52.138;5.424;2024-03-22T03:54:59;101834.69;;;10.30;100.00
71772;BME280;59606;52.138;5.424;2024-03-22T03:57:24;101822.63;;;10.28;100.00
71772;BME280;59606;52.138;5.424;2024-03-22T03:59:50;101830.44;;;10.28;100.00
71772;BME280;59606;52.138;5.424;2024-03-22T04:02:15;101833.94;;;10.27;100.00
71772;BME280;59606;52.138;5.424;2024-03-22T04:04:41;101839.16;;;10.27;100.00
71772;BME280;59606;52.138;5.424;2024-03-22T04:07:06;101834.88;;;10.24;100.00
71772;BME280;59606;52.138;5.424;2024-03-22T04:09:32;101826.22;;;10.24;100.00
71772;BME280;59606;52.138;5.424;2024-03-22T04:11:58;101828.84;;;10.22;100.00
71772;BME280;59606;52.138;5.424;2024-03-22T04:14:27;101827.25;;;10.20;100.00
71772;BME280;59606;52.138;5.424;2024-03-22T04:16:52;101836.84;;;10.18;100.00
71772;BME280;59606;52.138;5.424;2024-03-22T04:19:20;101838.53;;;10.19;100.00
71772;BME280;59606;52.138;5.424;2024-03-22T04:21:48;101834.31;;;10.16;100.00
71772;BME280;59606;52.138;5.424;2024-03-22T04:24:14;101839.53;;;10.16;100.00
71772;BME280;59606;52.138;5.424;2024-03-22T04:26:39;101838.66;;;10.15;100.00
71772;BME280;59606;52.138;5.424;2024-03-22T04:29:05;101832.56;;;10.17;100.00
71772;BME280;59606;52.138;5.424;2024-03-22T04:31:30;101828.31;;;10.14;100.00
71772;BME280;59606;52.138;5.424;2024-03-22T04:33:56;101829.22;;;10.13;100.00
71772;BME280;59606;52.138;5.424;2024-03-22T04:36:21;101830.94;;;10.12;100.00
71772;BME280;59606;52.138;5.424;2024-03-22T04:38:48;101824.91;;;10.12;100.00
71772;BME280;59606;52.138;5.424;2024-03-22T04:41:14;101830.09;;;10.12;100.00
71772;BME280;59606;52.138;5.424;2024-03-22T04:43:40;101835.38;;;10.10;100.00
71772;BME280;59606;52.138;5.424;2024-03-22T04:46:05;101826.78;;;10.08;100.00
71772;BME280;59606;52.138;5.424;2024-03-22T04:48:31;101832.91;;;10.07;100.00
71772;BME280;59606;52.138;5.424;2024-03-22T04:50:56;101825.13;;;10.06;100.00
71772;BME280;59606;52.138;5.424;2024-03-22T04:53:22;101824.25;;;10.07;100.00
71772;BME280;59606;52.138;5.424;2024-03-22T04:55:49;101816.47;;;10.05;100.00
71772;BME280;59606;52.138;5.424;2024-03-22T04:58:20;101827.72;;;10.06;100.00
71772;BME280;59606;52.138;5.424;2024-03-22T05:00:47;101832.09;;;10.05;100.00
71772;BME280;59606;52.138;5.424;2024-03-22T05:03:13;101833.81;;;10.06;100.00
71772;BME280;59606;52.138;5.424;2024-03-22T05:05:39;101841.66;;;10.05;100.00
71772;BME280;59606;52.138;5.424;2024-03-22T05:08:06;101836.53;;;10.03;100.00
71772;BME280;59606;52.138;5.424;2024-03-22T05:10:33;101835.59;;;10.04;100.00
71772;BME280;59606;52.138;5.424;2024-03-22T05:12:58;101831.22;;;10.06;100.00
71772;BME280;59606;52.138;5.424;2024-03-22T05:15:24;101826.03;;;10.05;100.00
71772;BME280;59606;52.138;5.424;2024-03-22T05:17:56;101827.78;;;10.04;100.00
71772;BME280;59606;52.138;5.424;2024-03-22T05:20:22;101832.16;;;10.04;100.00
71772;BME280;59606;52.138;5.424;2024-03-22T05:22:47;101827.78;;;10.04;100.00
71772;BME280;59606;52.138;5.424;2024-03-22T05:25:13;101828.63;;;10.05;100.00
71772;BME280;59606;52.138;5.424;2024-03-22T05:27:45;101820.91;;;10.03;100.00
71772;BME280;59606;52.138;5.424;2024-03-22T05:30:12;101823.50;;;10.03;100.00
71772;BME280;59606;52.138;5.424;2024-03-22T05:32:40;101812.28;;;10.01;100.00
71772;BME280;59606;52.138;5.424;2024-03-22T05:35:07;101805.31;;;10.02;100.00
71772;BME280;59606;52.138;5.424;2024-03-22T05:37:33;101814.03;;;10.01;100.00
71772;BME280;59606;52.138;5.424;2024-03-22T05:40:00;101815.81;;;10.00;100.00
71772;BME280;59606;52.138;5.424;2024-03-22T05:42:26;101812.34;;;10.00;100.00
71772;BME280;59606;52.138;5.424;2024-03-22T05:44:51;101808.88;;;9.99;100.00
71772;BME280;59606;52.138;5.424;2024-03-22T05:47:18;101802.06;;;9.97;100.00
71772;BME280;59606;52.138;5.424;2024-03-22T05:49:45;101797.81;;;9.94;100.00
71772;BME280;59606;52.138;5.424;2024-03-22T05:52:11;101795.19;;;9.94;100.00
71772;BME280;59606;52.138;5.424;2024-03-22T05:54:37;101796.13;;;9.93;100.00
71772;BME280;59606;52.138;5.424;2024-03-22T05:57:03;101797.91;;;9.91;100.00
71772;BME280;59606;52.138;5.424;2024-03-22T05:59:30;101790.09;;;9.91;100.00
71772;BME280;59606;52.138;5.424;2024-03-22T06:01:56;101784.91;;;9.91;100.00
71772;BME280;59606;52.138;5.424;2024-03-22T06:04:21;101780.59;;;9.90;100.00
71772;BME280;59606;52.138;5.424;2024-03-22T06:06:49;101777.94;;;9.91;100.00
71772;BME280;59606;52.138;5.424;2024-03-22T06:09:15;101784.91;;;9.91;100.00
71772;BME280;59606;52.138;5.424;2024-03-22T06:11:50;101780.53;;;9.91;100.00
71772;BME280;59606;52.138;5.424;2024-03-22T06:14:15;101788.22;;;9.95;100.00
71772;BME280;59606;52.138;5.424;2024-03-22T06:16:41;101780.44;;;9.95;100.00
71772;BME280;59606;52.138;5.424;2024-03-22T06:19:06;101778.75;;;9.94;100.00
71772;BME280;59606;52.138;5.424;2024-03-22T06:21:32;101783.88;;;9.95;100.00
71772;BME280;59606;52.138;5.424;2024-03-22T06:23:57;101781.28;;;9.95;100.00
71772;BME280;59606;52.138;5.424;2024-03-22T06:26:25;101784.69;;;9.97;100.00
71772;BME280;59606;52.138;5.424;2024-03-22T06:28:50;101778.50;;;10.00;100.00
71772;BME280;59606;52.138;5.424;2024-03-22T06:31:16;101768.88;;;10.02;100.00
71772;BME280;59606;52.138;5.424;2024-03-22T06:33:42;101774.94;;;10.02;100.00
71772;BME280;59606;52.138;5.424;2024-03-22T06:36:08;101778.34;;;10.04;100.00
71772;BME280;59606;52.138;5.424;2024-03-22T06:38:33;101781.75;;;10.06;100.00
71772;BME280;59606;52.138;5.424;2024-03-22T06:40:59;101772.09;;;10.08;100.00
71772;BME280;59606;52.138;5.424;2024-03-22T06:43:25;101772.91;;;10.10;100.00
71772;BME280;59606;52.138;5.424;2024-03-22T06:45:50;101769.34;;;10.13;100.00
71772;BME280;59606;52.138;5.424;2024-03-22T06:48:16;101771.84;;;10.16;100.00
71772;BME280;59606;52.138;5.424;2024-03-22T06:50:43;101776.03;;;10.19;100.00
71772;BME280;59606;52.138;5.424;2024-03-22T06:53:11;101778.53;;;10.22;100.00
71772;BME280;59606;52.138;5.424;2024-03-22T06:55:37;101776.75;;;10.24;100.00
71772;BME280;59606;52.138;5.424;2024-03-22T06:58:03;101781.78;;;10.28;100.00
71772;BME280;59606;52.138;5.424;2024-03-22T07:00:29;101779.91;;;10.32;100.00
71772;BME280;59606;52.138;5.424;2024-03-22T07:02:55;101771.13;;;10.34;100.00
71772;BME280;59606;52.138;5.424;2024-03-22T07:05:25;101776.16;;;10.39;100.00
71772;BME280;59606;52.138;5.424;2024-03-22T07:07:51;101776.97;;;10.41;100.00
71772;BME280;59606;52.138;5.424;2024-03-22T07:10:18;101773.44;;;10.42;100.00
71772;BME280;59606;52.138;5.424;2024-03-22T07:12:45;101782.91;;;10.45;100.00
71772;BME280;59606;52.138;5.424;2024-03-22T07:15:11;101769.94;;;10.43;100.00
71772;BME280;59606;52.138;5.424;2024-03-22T07:17:37;101768.94;;;10.46;100.00
71772;BME280;59606;52.138;5.424;2024-03-22T07:20:04;101768.94;;;10.46;100.00
71772;BME280;59606;52.138;5.424;2024-03-22T07:22:30;101772.25;;;10.51;100.00
71772;BME280;59606;52.138;5.424;2024-03-22T07:24:56;101779.09;;;10.53;100.00
71772;BME280;59606;52.138;5.424;2024-03-22T07:27:21;101774.66;;;10.55;100.00
71772;BME280;59606;52.138;5.424;2024-03-22T07:29:47;101774.72;;;10.54;100.00
71772;BME280;59606;52.138;5.424;2024-03-22T07:32:12;101776.41;;;10.55;100.00
71772;BME280;59606;52.138;5.424;2024-03-22T07:34:38;101777.25;;;10.55;100.00
71772;BME280;59606;52.138;5.424;2024-03-22T07:37:04;101777.25;;;10.55;100.00
71772;BME280;59606;52.138;5.424;2024-03-22T07:39:30;101779.13;;;10.52;100.00
71772;BME280;59606;52.138;5.424;2024-03-22T07:41:55;101777.38;;;10.52;100.00
71772;BME280;59606;52.138;5.424;2024-03-22T07:44:21;101783.63;;;10.48;100.00
71772;BME280;59606;52.138;5.424;2024-03-22T07:46:49;101775.81;;;10.48;100.00
71772;BME280;59606;52.138;5.424;2024-03-22T07:49:14;101774.03;;;10.49;100.00
71772;BME280;59606;52.138;5.424;2024-03-22T07:51:40;101767.06;;;10.49;100.00
71772;BME280;59606;52.138;5.424;2024-03-22T07:54:06;101767.16;;;10.48;100.00
71772;BME280;59606;52.138;5.424;2024-03-22T07:56:31;101766.31;;;10.47;100.00
71772;BME280;59606;52.138;5.424;2024-03-22T07:58:57;101770.59;;;10.48;100.00
71772;BME280;59606;52.138;5.424;2024-03-22T08:01:23;101772.25;;;10.51;100.00
71772;BME280;59606;52.138;5.424;2024-03-22T08:03:49;101779.22;;;10.50;100.00
71772;BME280;59606;52.138;5.424;2024-03-22T08:06:15;101774.13;;;10.47;100.00
71772;BME280;59606;52.138;5.424;2024-03-22T08:08:42;101772.44;;;10.46;100.00
71772;BME280;59606;52.138;5.424;2024-03-22T08:11:07;101768.06;;;10.47;100.00
71772;BME280;59606;52.138;5.424;2024-03-22T08:13:34;101768.06;;;10.47;100.00
71772;BME280;59606;52.138;5.424;2024-03-22T08:16:00;101769.75;;;10.48;100.00
71772;BME280;59606;52.138;5.424;2024-03-22T08:18:27;101765.47;;;10.47;100.00
71772;BME280;59606;52.138;5.424;2024-03-22T08:20:53;101771.56;;;10.46;100.00
71772;BME280;59606;52.138;5.424;2024-03-22T08:23:19;101765.47;;;10.47;100.00
71772;BME280;59606;52.138;5.424;2024-03-22T08:25:47;101769.69;;;10.49;100.00
71772;BME280;59606;52.138;5.424;2024-03-22T08:28:14;101766.19;;;10.50;100.00
71772;BME280;59606;52.138;5.424;2024-03-22T08:30:40;101761.81;;;10.51;100.00
71772;BME280;59606;52.138;5.424;2024-03-22T08:33:07;101766.31;;;10.47;100.00
71772;BME280;59606;52.138;5.424;2024-03-22T08:35:34;101768.22;;;10.42;100.00
71772;BME280;59606;52.138;5.424;2024-03-22T08:37:59;101770.91;;;10.41;100.00
71772;BME280;59606;52.138;5.424;2024-03-22T08:40:25;101769.22;;;10.40;100.00
71772;BME280;59606;52.138;5.424;2024-03-22T08:42:52;101767.50;;;10.38;100.00
71772;BME280;59606;52.138;5.424;2024-03-22T08:45:18;101763.25;;;10.36;100.00
71772;BME280;59606;52.138;5.424;2024-03-22T08:47:43;101759.16;;;10.30;100.00
71772;BME280;59606;52.138;5.424;2024-03-22T08:50:11;101760.09;;;10.28;100.00
71772;BME280;59606;52.138;5.424;2024-03-22T08:52:37;101755.75;;;10.28;100.00
71772;BME280;59606;52.138;5.424;2024-03-22T08:55:05;101758.22;;;10.31;100.00
71772;BME280;59606;52.138;5.424;2024-03-22T08:57:33;101759.06;;;10.32;100.00
71772;BME280;59606;52.138;5.424;2024-03-22T08:59:58;101761.75;;;10.30;100.00
71772;BME280;59606;52.138;5.424;2024-03-22T09:02:24;101762.59;;;10.31;100.00
71772;BME280;59606;52.138;5.424;2024-03-22T09:04:49;101768.59;;;10.33;100.00
71772;BME280;59606;52.138;5.424;2024-03-22T09:07:16;101764.25;;;10.33;100.00
71772;BME280;59606;52.138;5.424;2024-03-22T09:09:42;101763.31;;;10.34;100.00
71772;BME280;59606;52.138;5.424;2024-03-22T09:12:07;101761.56;;;10.35;100.00
71772;BME280;59606;52.138;5.424;2024-03-22T09:14:33;101753.03;;;10.31;100.00
71772;BME280;59606;52.138;5.424;2024-03-22T09:16:58;101765.31;;;10.28;100.00
71772;BME280;59606;52.138;5.424;2024-03-22T09:19:28;101755.69;;;10.30;100.00
71772;BME280;59606;52.138;5.424;2024-03-22T09:21:54;101765.09;;;10.34;100.00
71772;BME280;59606;52.138;5.424;2024-03-22T09:24:19;101757.28;;;10.34;100.00
71772;BME280;59606;52.138;5.424;2024-03-22T09:26:45;101757.28;;;10.34;100.00
71772;BME280;59606;52.138;5.424;2024-03-22T09:29:13;101761.44;;;10.38;100.00
71772;BME280;59606;52.138;5.424;2024-03-22T09:31:38;101759.75;;;10.37;100.00
71772;BME280;59606;52.138;5.424;2024-03-22T09:34:04;101745.09;;;10.34;100.00
71772;BME280;59606;52.138;5.424;2024-03-22T09:36:30;101753.75;;;10.35;100.00
71772;BME280;59606;52.138;5.424;2024-03-22T09:38:59;101749.34;;;10.37;100.00
71772;BME280;59606;52.138;5.424;2024-03-22T09:41:25;101753.59;;;10.40;100.00
71772;BME280;59606;52.138;5.424;2024-03-22T09:43:57;101752.59;;;10.42;100.00
71772;BME280;59606;52.138;5.424;2024-03-22T09:46:23;101747.38;;;10.42;100.00
71772;BME280;59606;52.138;5.424;2024-03-22T09:48:49;101750.09;;;10.39;100.00
71772;BME280;59606;52.138;5.424;2024-03-22T09:51:18;101747.50;;;10.39;100.00
71772;BME280;59606;52.138;5.424;2024-03-22T09:53:44;101741.34;;;10.42;100.00
71772;BME280;59606;52.138;5.424;2024-03-22T09:56:14;101748.09;;;10.46;100.00
71772;BME280;59606;52.138;5.424;2024-03-22T09:58:41;101735.81;;;10.49;100.00
71772;BME280;59606;52.138;5.424;2024-03-22T10:01:07;101734.97;;;10.49;100.00
71772;BME280;59606;52.138;5.424;2024-03-22T10:03:33;101731.59;;;10.47;100.00
71772;BME280;59606;52.138;5.424;2024-03-22T10:06:00;101741.09;;;10.48;100.00
71772;BME280;59606;52.138;5.424;2024-03-22T10:08:27;101732.44;;;10.47;100.00
71772;BME280;59606;52.138;5.424;2024-03-22T10:10:53;101734.91;;;10.50;100.00
71772;BME280;59606;52.138;5.424;2024-03-22T10:13:19;101733.09;;;10.52;100.00
71772;BME280;59606;52.138;5.424;2024-03-22T10:15:46;101735.56;;;10.55;100.00
71772;BME280;59606;52.138;5.424;2024-03-22T10:18:12;101727.72;;;10.57;100.00
71772;BME280;59606;52.138;5.424;2024-03-22T10:20:38;101729.50;;;10.55;100.00
71772;BME280;59606;52.138;5.424;2024-03-22T10:23:03;101727.75;;;10.55;100.00
71772;BME280;59606;52.138;5.424;2024-03-22T10:25:29;101723.22;;;10.60;100.00
71772;BME280;59606;52.138;5.424;2024-03-22T10:27:56;101723.09;;;10.64;100.00
71772;BME280;59606;52.138;5.424;2024-03-22T10:30:24;101724.84;;;10.63;100.00
71772;BME280;59606;52.138;5.424;2024-03-22T10:32:52;101728.22;;;10.65;100.00
71772;BME280;59606;52.138;5.424;2024-03-22T10:35:18;101722.16;;;10.65;100.00
71772;BME280;59606;52.138;5.424;2024-03-22T10:37:44;101720.47;;;10.64;100.00
71772;BME280;59606;52.138;5.424;2024-03-22T10:40:10;101727.47;;;10.63;100.00
71772;BME280;59606;52.138;5.424;2024-03-22T10:42:39;101724.91;;;10.61;100.00
71772;BME280;59606;52.138;5.424;2024-03-22T10:45:07;101729.19;;;10.62;100.00
71772;BME280;59606;52.138;5.424;2024-03-22T10:47:34;101725.63;;;10.65;100.00
71772;BME280;59606;52.138;5.424;2024-03-22T10:50:08;101719.50;;;10.66;100.00
71772;BME280;59606;52.138;5.424;2024-03-22T10:52:45;101731.50;;;10.70;100.00
71772;BME280;59606;52.138;5.424;2024-03-22T10:55:16;101726.34;;;10.69;100.00
71772;BME280;59606;52.138;5.424;2024-03-22T10:57:45;101728.94;;;10.69;100.00
71772;BME280;59606;52.138;5.424;2024-03-22T11:00:11;101731.56;;;10.69;100.00
71772;BME280;59606;52.138;5.424;2024-03-22T11:02:38;101724.66;;;10.68;100.00
71772;BME280;59606;52.138;5.424;2024-03-22T11:05:18;101726.34;;;10.69;100.00
71772;BME280;59606;52.138;5.424;2024-03-22T11:07:47;101721.84;;;10.72;100.00
71772;BME280;59606;52.138;5.424;2024-03-22T11:10:14;101722.66;;;10.74;100.00
71772;BME280;59606;52.138;5.424;2024-03-22T11:12:40;101707.78;;;10.76;100.00
71772;BME280;59606;52.138;5.424;2024-03-22T11:15:08;101706.94;;;10.76;100.00
71772;BME280;59606;52.138;5.424;2024-03-22T11:17:40;101710.34;;;10.78;100.00
71772;BME280;59606;52.138;5.424;2024-03-22T11:20:07;101704.91;;;10.82;100.00
71772;BME280;59606;52.138;5.424;2024-03-22T11:22:32;101703.91;;;10.87;100.00
71772;BME280;59606;52.138;5.424;2024-03-22T11:24:58;101703.75;;;10.90;100.00
71772;BME280;59606;52.138;5.424;2024-03-22T11:27:23;101697.63;;;10.91;100.00
71772;BME280;59606;52.138;5.424;2024-03-22T11:29:49;101693.13;;;10.94;100.00
71772;BME280;59606;52.138;5.424;2024-03-22T11:32:16;101692.59;;;11.06;100.00
71772;BME280;59606;52.138;5.424;2024-03-22T11:34:43;101690.66;;;11.12;100.00
71772;BME280;59606;52.138;5.424;2024-03-22T11:37:09;101686.09;;;11.17;100.00
71772;BME280;59606;52.138;5.424;2024-03-22T11:39:36;101682.44;;;11.21;100.00
71772;BME280;59606;52.138;5.424;2024-03-22T11:42:05;101679.56;;;11.27;100.00
71772;BME280;59606;52.138;5.424;2024-03-22T11:44:32;101683.72;;;11.31;100.00
71772;BME280;59606;52.138;5.424;2024-03-22T11:46:59;101684.69;;;11.28;100.00
71772;BME280;59606;52.138;5.424;2024-03-22T11:49:25;101676.50;;;11.36;100.00
71772;BME280;59606;52.138;5.424;2024-03-22T11:51:52;101680.84;;;11.37;100.00
71772;BME280;59606;52.138;5.424;2024-03-22T11:54:20;101674.03;;;11.33;100.00
71772;BME280;59606;52.138;5.424;2024-03-22T11:56:47;101667.22;;;11.30;100.00
71772;BME280;59606;52.138;5.424;2024-03-22T11:59:12;101673.28;;;11.31;100.00
71772;BME280;59606;52.138;5.424;2024-03-22T12:01:38;101672.69;;;11.24;100.00
71772;BME280;59606;52.138;5.424;2024-03-22T12:04:04;101662.66;;;11.15;100.00
71772;BME280;59606;52.138;5.424;2024-03-22T12:06:30;101665.50;;;11.11;100.00
71772;BME280;59606;52.138;5.424;2024-03-22T12:08:56;101671.47;;;11.13;100.00
71772;BME280;59606;52.138;5.424;2024-03-22T12:11:21;101667.25;;;11.10;100.00
71772;BME280;59606;52.138;5.424;2024-03-22T12:13:47;101665.81;;;11.03;100.00
71772;BME280;59606;52.138;5.424;2024-03-22T12:16:12;101664.34;;;10.97;100.00
71772;BME280;59606;52.138;5.424;2024-03-22T12:18:38;101656.56;;;10.96;100.00
71772;BME280;59606;52.138;5.424;2024-03-22T12:21:03;101665.44;;;10.92;100.00
71772;BME280;59606;52.138;5.424;2024-03-22T12:23:29;101668.13;;;10.90;100.00
71772;BME280;59606;52.138;5.424;2024-03-22T12:25:56;101657.59;;;10.92;100.00
71772;BME280;59606;52.138;5.424;2024-03-22T12:28:22;101663.88;;;10.88;100.00
71772;BME280;59606;52.138;5.424;2024-03-22T12:30:52;101659.72;;;10.83;100.00
71772;BME280;59606;52.138;5.424;2024-03-22T12:33:22;101657.16;;;10.82;100.00
71772;BME280;59606;52.138;5.424;2024-03-22T12:36:13;101648.41;;;10.83;100.00